createdAt,value
2019-04-03T00:01:49.231Z,50.99
2019-04-03T00:04:20.923Z,51.09
2019-04-03T00:06:52.800Z,50.55
2019-04-03T00:09:24.418Z,50.95
2019-04-03T00:11:56.058Z,51.09
2019-04-03T00:14:27.735Z,51.45
2019-04-03T00:16:59.222Z,51.65
2019-04-03T00:19:30.705Z,51.48
2019-04-03T00:22:03.297Z,51.67
2019-04-03T00:24:35.913Z,51.83
2019-04-03T00:27:07.656Z,51.82
2019-04-03T00:29:39.242Z,52.21
2019-04-03T00:32:10.967Z,52.09
2019-04-03T00:34:42.620Z,51.77
2019-04-03T00:37:14.221Z,52.22
2019-04-03T00:39:45.762Z,52.26
2019-04-03T00:42:17.379Z,52.74
2019-04-03T00:44:49.000Z,52.97
2019-04-03T00:47:20.560Z,53.03
2019-04-03T00:49:52.113Z,53.15
2019-04-03T00:52:23.825Z,52.78
2019-04-03T00:54:56.515Z,52.67
2019-04-03T00:57:28.651Z,53.01
2019-04-03T01:00:00.176Z,52.96
2019-04-03T01:02:31.770Z,53.19
2019-04-03T01:05:04.105Z,53.62
2019-04-03T01:07:35.717Z,53.54
2019-04-03T01:10:08.474Z,53.73
2019-04-03T01:12:40.010Z,53.79
2019-04-03T01:15:11.788Z,53.77
2019-04-03T01:17:43.440Z,54.02
2019-04-03T01:20:16.555Z,53.93
2019-04-03T01:22:48.257Z,54.01
2019-04-03T01:25:20.003Z,54.05
2019-04-03T01:27:51.508Z,54.37
2019-04-03T01:30:24.665Z,54.27
2019-04-03T01:32:56.315Z,54.41
2019-04-03T01:35:27.948Z,54.32
2019-04-03T01:37:59.679Z,54.48
2019-04-03T01:40:31.386Z,54.19
2019-04-03T01:43:02.878Z,54.38
2019-04-03T01:45:34.398Z,54.52
2019-04-03T01:48:06.113Z,54.58
2019-04-03T01:50:38.767Z,54.80
2019-04-03T01:53:10.990Z,55.01
2019-04-03T01:55:42.688Z,54.73
2019-04-03T01:58:14.322Z,54.83
2019-04-03T02:00:45.794Z,55.23
2019-04-03T02:03:17.325Z,55.14
2019-04-03T02:05:48.887Z,55.04
2019-04-03T02:08:20.797Z,55.20
2019-04-03T02:10:52.609Z,55.47
2019-04-03T02:13:24.203Z,55.41
2019-04-03T02:15:55.835Z,55.52
2019-04-03T02:18:27.417Z,55.44
2019-04-03T02:20:59.430Z,55.48
2019-04-03T02:23:31.260Z,55.64
2019-04-03T02:26:03.114Z,55.38
2019-04-03T02:28:35.254Z,55.60
2019-04-03T02:31:07.113Z,55.75
2019-04-03T02:33:38.691Z,55.76
2019-04-03T02:36:12.210Z,55.92
2019-04-03T02:38:43.550Z,55.82
2019-04-03T02:41:16.318Z,55.83
2019-04-03T02:43:47.859Z,55.97
2019-04-03T02:46:19.567Z,55.94
2019-04-03T02:48:51.362Z,56.02
2019-04-03T02:51:23.051Z,56.32
2019-04-03T02:53:54.555Z,56.27
2019-04-03T02:56:26.172Z,56.27
2019-04-03T02:58:57.686Z,56.46
2019-04-03T03:01:29.254Z,56.41
2019-04-03T03:04:01.003Z,56.32
2019-04-03T03:06:33.641Z,56.35
2019-04-03T03:09:06.396Z,56.41
2019-04-03T03:11:37.942Z,56.56
2019-04-03T03:14:09.696Z,56.55
2019-04-03T03:16:41.592Z,56.88
2019-04-03T03:19:14.055Z,56.79
2019-04-03T03:21:46.292Z,56.82
2019-04-03T03:24:17.998Z,56.84
2019-04-03T03:26:49.717Z,56.92
2019-04-03T03:29:25.083Z,56.92
2019-04-03T03:32:12.735Z,57.14
2019-04-03T03:34:49.307Z,57.14
2019-04-03T03:37:03.329Z,57.31
2019-04-03T03:39:35.107Z,57.28
2019-04-03T03:42:06.666Z,57.35
2019-04-03T03:44:40.696Z,57.60
2019-04-03T03:47:11.502Z,57.57
2019-04-03T03:49:43.174Z,57.57
2019-04-03T03:52:15.655Z,57.73
2019-04-03T03:54:49.635Z,57.93
2019-04-03T03:57:20.394Z,57.93
2019-04-03T03:59:52.808Z,58.06
2019-04-03T04:02:24.811Z,58.03
2019-04-03T04:04:56.456Z,58.16
2019-04-03T04:07:28.077Z,58.14
2019-04-03T04:09:59.669Z,58.17
2019-04-03T04:12:31.318Z,58.24
2019-04-03T04:15:03.258Z,58.24
2019-04-03T04:17:35.245Z,58.63
2019-04-03T04:20:07.705Z,58.32
2019-04-03T04:22:39.698Z,58.34
2019-04-03T04:25:11.332Z,58.69
2019-04-03T04:27:42.968Z,58.52
2019-04-03T04:30:15.801Z,58.85
2019-04-03T04:32:47.631Z,58.51
2019-04-03T04:35:21.490Z,58.39
2019-04-03T04:37:55.401Z,58.55
2019-04-03T04:40:25.659Z,58.73
2019-04-03T04:42:57.198Z,58.42
2019-04-03T04:45:28.619Z,58.61
2019-04-03T04:48:00.302Z,58.78
2019-04-03T04:50:31.951Z,58.73
2019-04-03T04:53:03.481Z,58.90
2019-04-03T04:55:35.927Z,58.82
2019-04-03T04:58:07.724Z,58.91
2019-04-03T05:00:39.474Z,58.88
2019-04-03T05:03:11.048Z,59.04
2019-04-03T05:05:42.775Z,58.96
2019-04-03T05:08:14.346Z,59.07
2019-04-03T05:10:48.634Z,59.12
2019-04-03T05:13:19.297Z,59.19
2019-04-03T05:15:53.197Z,59.20
2019-04-03T05:18:24.027Z,59.18
2019-04-03T05:20:55.646Z,59.50
2019-04-03T05:23:27.792Z,59.37
2019-04-03T05:26:01.934Z,59.40
2019-04-03T05:28:34.067Z,59.40
2019-04-03T05:31:07.953Z,59.31
2019-04-03T05:33:41.226Z,59.47
2019-04-03T05:36:12.950Z,59.29
2019-04-03T05:38:44.418Z,59.35
2019-04-03T05:41:16.102Z,59.40
2019-04-03T05:43:47.560Z,59.35
2019-04-03T05:46:19.882Z,59.19
2019-04-03T05:48:51.484Z,59.27
2019-04-03T05:51:23.024Z,59.14
2019-04-03T05:53:54.629Z,59.16
2019-04-03T05:56:26.184Z,58.90
2019-04-03T05:59:01.335Z,58.83
2019-04-03T06:01:31.343Z,58.57
2019-04-03T06:04:03.055Z,58.57
2019-04-03T06:06:34.919Z,58.40
2019-04-03T06:09:07.764Z,58.44
2019-04-03T06:11:40.765Z,58.31
2019-04-03T06:14:12.848Z,58.44
2019-04-03T06:16:44.470Z,57.98
2019-04-03T06:19:16.167Z,57.75
2019-04-03T06:21:48.308Z,58.01
2019-04-03T06:24:20.479Z,57.74
2019-04-03T06:26:52.103Z,57.61
2019-04-03T06:29:23.830Z,57.66
2019-04-03T06:31:55.915Z,57.29
2019-04-03T06:34:28.887Z,56.90
2019-04-03T06:37:00.650Z,56.91
2019-04-03T06:39:32.369Z,56.23
2019-04-03T06:42:03.943Z,56.58
2019-04-03T06:44:35.603Z,56.13
2019-04-03T06:47:07.059Z,55.87
2019-04-03T06:49:40.255Z,55.82
2019-04-03T06:52:13.740Z,55.84
2019-04-03T06:54:45.286Z,55.54
2019-04-03T06:57:16.987Z,55.14
2019-04-03T06:59:48.934Z,54.99
2019-04-03T07:02:20.759Z,55.09
2019-04-03T07:04:52.394Z,54.85
2019-04-03T07:07:32.946Z,54.27
2019-04-03T07:09:57.366Z,54.40
2019-04-03T07:12:29.352Z,54.36
2019-04-03T07:15:01.036Z,54.01
2019-04-03T07:17:33.012Z,53.83
2019-04-03T07:20:13.606Z,53.78
2019-04-03T07:22:39.758Z,53.21
2019-04-03T07:25:11.538Z,52.98
2019-04-03T07:27:43.226Z,52.87
2019-04-03T07:30:17.035Z,53.00
2019-04-03T07:32:48.423Z,52.15
2019-04-03T07:35:20.063Z,52.16
2019-04-03T07:37:52.050Z,52.13
2019-04-03T07:40:23.822Z,52.14
2019-04-03T07:42:56.334Z,51.96
2019-04-03T07:45:28.792Z,51.94
2019-04-03T07:48:01.299Z,51.75
2019-04-03T07:50:36.109Z,51.57
2019-04-03T07:53:06.683Z,51.40
2019-04-03T07:55:39.856Z,51.30
2019-04-03T07:58:11.434Z,51.15
2019-04-03T08:00:43.084Z,50.82
2019-04-03T08:03:14.857Z,50.75
2019-04-03T08:05:46.616Z,50.26
2019-04-03T08:08:18.203Z,50.15
2019-04-03T08:10:49.804Z,49.86
2019-04-03T08:13:21.403Z,49.66
2019-04-03T08:15:53.066Z,49.94
2019-04-03T08:18:26.501Z,50.02
2019-04-03T08:21:01.539Z,49.56
2019-04-03T08:23:31.714Z,48.99
2019-04-03T08:26:04.078Z,48.65
2019-04-03T08:28:35.664Z,48.24
2019-04-03T08:31:10.456Z,48.10
2019-04-03T08:33:40.632Z,48.13
2019-04-03T08:36:23.132Z,48.12
2019-04-03T08:38:45.783Z,47.83
2019-04-03T08:41:17.587Z,47.76
2019-04-03T08:43:49.386Z,47.45
2019-04-03T08:46:20.890Z,47.23
2019-04-03T08:48:54.704Z,46.94
2019-04-03T08:51:25.802Z,46.89
2019-04-03T08:53:57.577Z,46.56
2019-04-03T08:56:29.478Z,46.20
2019-04-03T08:59:01.115Z,46.16
2019-04-03T09:01:35.944Z,45.85
2019-04-03T09:04:06.106Z,45.27
2019-04-03T09:06:37.732Z,44.84
2019-04-03T09:09:11.517Z,44.76
2019-04-03T09:11:43.592Z,45.06
2019-04-03T09:14:15.350Z,44.84
2019-04-03T09:16:47.033Z,44.93
2019-04-03T09:19:18.972Z,44.82
2019-04-03T09:21:51.663Z,44.59
2019-04-03T09:24:23.324Z,44.05
2019-04-03T09:26:54.886Z,44.03
2019-04-03T09:29:26.823Z,44.13
2019-04-03T09:31:58.487Z,43.62
2019-04-03T09:34:32.252Z,43.32
2019-04-03T09:37:06.378Z,42.95
2019-04-03T09:39:37.711Z,42.78
2019-04-03T09:42:09.470Z,43.07
2019-04-03T09:44:41.121Z,42.82
2019-04-03T09:47:12.863Z,42.53
2019-04-03T09:49:44.858Z,42.61
2019-04-03T09:52:16.475Z,42.34
2019-04-03T09:54:48.021Z,42.02
2019-04-03T09:57:19.915Z,41.87
2019-04-03T09:59:51.789Z,42.15
2019-04-03T10:02:23.460Z,41.62
2019-04-03T10:04:57.332Z,41.43
2019-04-03T10:07:30.970Z,41.12
2019-04-03T10:10:02.005Z,41.10
2019-04-03T10:12:35.034Z,40.69
2019-04-03T10:15:08.116Z,40.55
2019-04-03T10:17:39.748Z,40.10
2019-04-03T10:20:11.375Z,40.28
2019-04-03T10:22:43.019Z,39.87
2019-04-03T10:25:14.634Z,39.85
2019-04-03T11:23:58.395Z,36.60
2019-04-03T11:26:30.136Z,36.59
2019-04-03T11:29:02.123Z,36.77
2019-04-03T11:31:40.670Z,36.74
2019-04-03T11:34:07.258Z,36.99
2019-04-03T11:36:39.319Z,36.52
2019-04-03T11:39:15.043Z,37.06
2019-04-03T11:41:43.981Z,37.05
2019-04-03T11:44:15.456Z,35.84
2019-04-03T11:46:47.174Z,35.86
2019-04-03T11:49:21.411Z,35.47
2019-04-03T11:51:53.072Z,36.00
2019-04-03T11:54:25.135Z,36.07
2019-04-03T11:56:57.218Z,36.02
2019-04-03T11:59:29.348Z,35.76
2019-04-03T12:02:01.160Z,36.17
2019-04-03T12:04:32.881Z,35.94
2019-04-03T12:07:04.497Z,35.25
2019-04-03T12:09:36.226Z,35.76
2019-04-03T12:12:10.501Z,34.68
2019-04-03T12:14:41.384Z,34.57
2019-04-03T12:17:13.499Z,34.43
2019-04-03T12:19:46.098Z,34.31
2019-04-03T12:22:17.845Z,34.17
2019-04-03T12:24:49.581Z,34.54
2019-04-03T12:27:21.220Z,34.65
2019-04-03T12:29:54.581Z,33.96
2019-04-03T12:32:36.667Z,34.05
2019-04-03T12:34:59.464Z,34.00
2019-04-03T12:37:31.363Z,34.16
2019-04-03T12:40:03.579Z,33.84
2019-04-03T12:42:35.714Z,33.34
2019-04-03T12:45:07.915Z,33.24
2019-04-03T12:47:42.620Z,32.79
2019-04-03T12:50:13.503Z,32.73
2019-04-03T12:52:45.988Z,32.56
2019-04-03T12:55:17.554Z,32.38
2019-04-03T12:57:49.530Z,31.93
2019-04-03T13:00:23.141Z,31.22
2019-04-03T13:02:55.395Z,30.70
2019-04-03T13:05:27.481Z,31.19
2019-04-03T13:07:59.818Z,30.26
2019-04-03T13:10:41.357Z,29.51
2019-04-03T13:13:05.627Z,29.20
2019-04-03T13:15:38.090Z,29.00
2019-04-03T13:18:10.251Z,28.69
2019-04-03T13:20:43.401Z,28.77
2019-04-03T13:23:15.588Z,27.77
2019-04-03T13:25:47.814Z,27.63
2019-04-03T13:28:19.640Z,27.35
2019-04-03T13:30:51.259Z,26.86
2019-04-03T13:33:22.767Z,26.86
2019-04-03T13:35:54.583Z,26.96
2019-04-03T13:38:28.445Z,26.64
2019-04-03T13:41:00.545Z,26.58
2019-04-03T13:43:32.544Z,26.25
2019-04-03T13:46:05.036Z,25.76
2019-04-03T13:48:37.870Z,25.58
2019-04-03T13:51:12.210Z,25.09
2019-04-03T13:53:43.110Z,25.03
2019-04-03T13:56:15.016Z,24.79
2019-04-03T13:58:47.004Z,24.77
2019-04-03T14:01:19.667Z,24.51
2019-04-03T14:03:51.658Z,24.57
2019-04-03T14:06:25.087Z,24.30
2019-04-03T14:08:57.340Z,24.56
2019-04-03T14:11:31.258Z,24.10
2019-04-03T14:14:03.313Z,23.42
2019-04-03T14:16:35.570Z,23.54
2019-04-03T14:19:07.295Z,23.11
2019-04-03T14:21:39.023Z,22.66
2019-04-03T14:24:10.527Z,22.88
2019-04-03T14:26:44.301Z,23.16
2019-04-03T14:29:15.822Z,22.78
2019-04-03T14:31:48.552Z,22.42
2019-04-03T14:34:21.231Z,22.29
2019-04-03T14:36:53.085Z,22.40
2019-04-03T14:39:25.067Z,22.28
2019-04-03T14:41:56.659Z,22.36
2019-04-03T14:44:28.417Z,21.94
2019-04-03T14:47:00.245Z,22.10
2019-04-03T14:49:33.275Z,22.05
2019-04-03T14:52:05.272Z,21.75
2019-04-03T14:54:37.153Z,21.90
2019-04-03T14:57:19.749Z,21.73
2019-04-03T14:59:43.124Z,21.86
2019-04-03T15:02:14.770Z,21.80
2019-04-03T15:04:46.617Z,21.74
2019-04-03T15:07:18.922Z,21.79
2019-04-03T15:09:50.480Z,22.46
2019-04-03T15:12:22.230Z,22.73
2019-04-03T15:14:54.510Z,23.62
2019-04-03T15:17:26.991Z,23.71
2019-04-03T15:19:58.593Z,24.16
2019-04-03T15:22:32.477Z,24.58
2019-04-03T15:25:03.423Z,24.49
2019-04-03T15:27:35.040Z,25.28
2019-04-03T15:30:11.224Z,25.41
2019-04-03T15:32:42.935Z,25.84
2019-04-03T15:35:14.858Z,26.56
2019-04-03T15:37:46.481Z,26.61
2019-04-03T15:40:18.027Z,26.92
2019-04-03T15:42:49.742Z,27.33
2019-04-03T15:45:22.468Z,27.45
2019-04-03T15:47:57.096Z,27.55
2019-04-03T15:50:30.192Z,28.07
2019-04-03T15:53:01.317Z,28.11
2019-04-03T15:55:33.000Z,28.69
2019-04-03T15:58:04.914Z,29.02
2019-04-03T16:00:37.070Z,29.32
2019-04-03T16:03:08.756Z,29.65
2019-04-03T16:05:40.816Z,29.38
2019-04-03T16:08:13.320Z,30.00
2019-04-03T16:10:45.561Z,29.98
2019-04-03T16:13:17.752Z,30.52
2019-04-03T16:15:49.327Z,30.81
2019-04-03T16:18:21.268Z,30.85
2019-04-03T16:20:52.866Z,31.19
2019-04-03T16:23:24.551Z,31.91
2019-04-03T16:25:56.508Z,32.10
2019-04-03T16:28:28.615Z,32.35
2019-04-03T16:31:00.467Z,32.32
2019-04-03T16:33:35.075Z,32.62
2019-04-03T16:36:06.901Z,32.74
2019-04-03T16:38:39.190Z,32.93
2019-04-03T16:41:11.794Z,33.83
2019-04-03T16:43:43.624Z,33.59
2019-04-03T16:46:15.675Z,34.15
2019-04-03T16:48:49.904Z,33.87
2019-04-03T16:51:21.406Z,34.47
2019-04-03T16:53:53.297Z,34.52
2019-04-03T16:56:25.253Z,35.03
2019-04-03T16:58:59.760Z,35.05
2019-04-03T17:01:30.706Z,35.30
2019-04-03T17:04:03.930Z,35.75
2019-04-03T17:06:35.651Z,36.28
2019-04-03T17:09:08.790Z,36.44
2019-04-03T17:11:43.488Z,36.91
2019-04-03T17:14:13.651Z,36.89
2019-04-03T17:16:46.282Z,37.51
2019-04-03T17:19:18.912Z,37.18
2019-04-03T17:21:50.770Z,37.46
2019-04-03T17:24:23.567Z,38.41
2019-04-03T17:26:58.297Z,37.95
2019-04-03T17:29:29.228Z,38.32
2019-04-03T17:32:01.014Z,38.20
2019-04-03T17:34:33.087Z,38.60
2019-04-03T17:37:04.938Z,38.79
2019-04-03T17:39:37.850Z,39.10
2019-04-03T17:42:09.497Z,39.16
2019-04-03T17:44:42.868Z,39.42
2019-04-03T17:47:14.661Z,39.72
2019-04-03T17:49:46.288Z,39.73
2019-04-03T17:52:18.049Z,40.07
2019-04-03T17:54:49.615Z,40.15
2019-04-03T17:57:21.142Z,40.52
2019-04-03T17:59:52.769Z,40.48
2019-04-03T18:02:24.697Z,40.61
2019-04-03T18:04:57.793Z,41.10
2019-04-03T18:07:29.331Z,41.16
2019-04-03T18:10:01.162Z,41.52
2019-04-03T18:12:32.962Z,41.48
2019-04-03T18:15:07.862Z,41.68
2019-04-03T18:17:39.686Z,41.93
2019-04-03T18:20:13.287Z,42.35
2019-04-03T18:22:44.766Z,42.43
2019-04-03T18:25:16.244Z,42.42
2019-04-03T18:27:47.810Z,42.68
2019-04-03T18:30:19.693Z,42.95
2019-04-03T18:32:51.393Z,43.13
2019-04-03T18:35:25.444Z,43.32
2019-04-03T18:37:56.249Z,43.40
2019-04-03T18:40:32.841Z,43.49
2019-04-03T18:43:16.888Z,43.51
2019-04-03T18:45:58.478Z,43.59
2019-04-03T18:48:34.589Z,44.36
2019-04-03T18:51:07.224Z,44.87
2019-04-03T18:53:40.647Z,44.12
2019-04-03T18:56:13.772Z,44.52
2019-04-03T18:58:53.130Z,44.25
2019-04-03T19:01:26.279Z,44.65
2019-04-03T19:03:57.871Z,44.38
2019-04-03T19:06:29.523Z,44.84
2019-04-03T19:09:09.771Z,44.35
2019-04-03T19:11:36.051Z,44.97
2019-04-03T19:14:07.844Z,45.16
2019-04-03T19:16:45.266Z,45.07
2019-04-03T19:19:16.326Z,44.62
2019-04-03T19:21:47.985Z,45.05
2019-04-03T19:24:19.574Z,45.02
2019-04-03T19:26:51.202Z,45.35
2019-04-03T19:29:22.891Z,45.17
2019-04-03T19:31:55.356Z,45.46
2019-04-03T19:34:27.040Z,45.41
2019-04-03T19:36:58.855Z,45.70
2019-04-03T19:39:30.603Z,46.05
2019-04-03T19:42:02.566Z,45.80
2019-04-03T19:44:34.117Z,46.09
2019-04-03T19:47:06.927Z,45.90
2019-04-03T19:49:40.198Z,46.38
2019-04-03T19:52:13.072Z,46.17
2019-04-03T19:54:45.175Z,46.82
2019-04-03T19:57:16.831Z,46.65
2019-04-03T19:59:49.093Z,46.65
2019-04-03T20:02:21.259Z,46.78
2019-04-03T20:04:52.851Z,46.67
2019-04-03T20:07:24.835Z,47.02
2019-04-03T20:09:58.364Z,46.95
2019-04-03T20:12:30.478Z,47.75
2019-04-03T20:15:02.746Z,46.97
2019-04-03T20:17:34.765Z,47.69
2019-04-03T20:20:07.684Z,47.35
2019-04-03T20:22:57.843Z,47.12
2019-04-03T20:25:35.688Z,47.46
2019-04-03T20:28:07.949Z,47.79
2019-04-03T20:30:39.589Z,47.65
2019-04-03T20:33:11.717Z,47.68
2019-04-03T20:35:43.749Z,47.71
2019-04-03T20:38:15.640Z,47.97
2019-04-03T20:40:47.274Z,48.26
2019-04-03T20:43:18.888Z,48.08
2019-04-03T20:45:50.389Z,48.20
2019-04-03T20:48:22.970Z,48.76
2019-04-03T20:50:54.483Z,48.71
2019-04-03T20:53:26.017Z,48.60
2019-04-03T20:55:58.087Z,48.91
2019-04-03T20:58:30.479Z,48.87
2019-04-03T21:01:06.839Z,48.85
2019-04-03T21:03:35.284Z,49.01
2019-04-03T21:06:06.724Z,49.29
2019-04-03T21:08:38.345Z,49.11
2019-04-03T21:11:09.896Z,49.31
2019-04-03T21:13:42.536Z,49.20
2019-04-03T21:16:15.013Z,49.40
2019-04-03T21:18:47.667Z,49.59
2019-04-03T21:21:19.523Z,49.70
2019-04-03T21:23:50.999Z,50.01
2019-04-03T21:26:22.625Z,50.22
2019-04-03T21:28:54.159Z,50.55
2019-04-03T21:31:26.038Z,50.18
2019-04-03T21:33:58.278Z,50.30
2019-04-03T21:36:29.893Z,50.18
2019-04-03T21:39:01.462Z,50.34
2019-04-03T21:41:34.668Z,50.49
2019-04-03T21:44:06.205Z,50.47
2019-04-03T21:46:39.672Z,50.94
2019-04-03T21:49:11.908Z,50.58
2019-04-03T21:51:43.541Z,50.81
2019-04-03T21:54:15.096Z,50.85
2019-04-03T21:56:46.670Z,51.03
2019-04-03T21:59:18.222Z,51.23
2019-04-03T22:01:49.888Z,51.07
2019-04-03T22:04:22.787Z,51.11
2019-04-03T22:06:57.633Z,51.45
2019-04-03T22:09:28.843Z,51.51
2019-04-03T22:12:01.577Z,51.51
2019-04-03T22:14:34.217Z,51.48
2019-04-03T22:17:05.815Z,51.79
2019-04-03T22:19:37.421Z,51.95
2019-04-03T22:22:08.997Z,51.80
2019-04-03T22:24:40.711Z,51.61
2019-04-03T22:27:12.175Z,51.71
2019-04-03T22:29:44.080Z,51.83
2019-04-03T22:32:15.626Z,52.21
2019-04-03T22:34:47.249Z,52.44
2019-04-03T22:37:18.940Z,52.05
2019-04-03T22:39:50.789Z,52.20
2019-04-03T22:42:22.235Z,52.54
2019-04-03T22:44:53.874Z,52.46
2019-04-03T22:47:25.753Z,52.59
2019-04-03T22:49:57.443Z,52.73
2019-04-03T22:52:29.056Z,52.82
2019-04-03T22:55:00.766Z,52.85
2019-04-03T22:57:32.619Z,52.87
2019-04-03T23:00:06.647Z,52.82
2019-04-03T23:02:38.858Z,52.90
2019-04-03T23:05:10.455Z,52.96
2019-04-03T23:07:42.430Z,53.16
2019-04-03T23:10:14.014Z,53.32
2019-04-03T23:12:45.831Z,53.41
2019-04-03T23:15:17.483Z,53.43
2019-04-03T23:17:49.250Z,53.53
2019-04-03T23:20:22.164Z,53.48
2019-04-03T23:22:56.344Z,53.71
2019-04-03T23:25:27.831Z,53.65
2019-04-03T23:28:02.990Z,53.80
2019-04-03T23:30:35.511Z,53.75
2019-04-03T23:33:08.292Z,54.04
2019-04-03T23:35:40.574Z,54.15
2019-04-03T23:38:12.220Z,54.29
2019-04-03T23:40:44.037Z,54.40
2019-04-03T23:43:15.656Z,54.36
2019-04-03T23:45:47.301Z,54.30
2019-04-03T23:48:20.043Z,54.51
2019-04-03T23:50:52.721Z,54.68
2019-04-03T23:53:24.820Z,54.74
2019-04-03T23:55:56.522Z,54.78
2019-04-03T23:58:28.129Z,55.02
